»·PEaware :: AUZ081 KLAS-PHNL

AUZ081 :: KLAS-PHNL

FLIGHT INFORMATION

Flight Status: Arrived
Operator:
Australian Airlines
More flights by this operator :: More flights under this callsign
Pilot: Kim Ellis (65)
Aircraft: BOEING 747-400 (WINGLETS)
(B744)
More flights by this aircraft type
Origin: KLAS McCarran Intl
United States
Destination: PHNL Honolulu Intl
United States
More flights between these airports :: More routes between these airports
Route: +BOACH5 HEC J60 LAX DINTY R576 DENNS MAGGI3
File this flight plan on PilotEdge
Remarks:
Altitude:
(Current/Filed)
41,000ft
Speed:
(Current/Filed)
520kts
Departed: 09-Mar-15 02:50 PM
Arrived: 09-Mar-15 08:26 PM
Distance/Time
Traveled:
2396nm/5:36
Distance/Time
To Go:
Arrived

Flight Plot

Page will automatically refresh every two minutes.

Flight plan parsing failed; only flown route is shown


Map Options




Map Legend


Flown Route
Filed Route
Departure Airport
Arrival Airport
Navaid (VOR, NDB)
Fix

Horizontal Profiles

Position Reports

Time Latitude Longitude Heading Altitude Ground
Speed
09-Mar-15 14:02 36.079792 -115.135296 356 2193ft 0kts
09-Mar-15 14:03 36.079792 -115.135296 356 2193ft 0kts
09-Mar-15 14:04 36.079792 -115.135296 356 2193ft 0kts
09-Mar-15 14:05 36.079792 -115.135296 356 2193ft 0kts
09-Mar-15 14:06 36.079792 -115.135296 356 2193ft 0kts
09-Mar-15 14:07 36.079792 -115.135296 356 2193ft 0kts
09-Mar-15 14:08 36.079792 -115.135296 356 2193ft 0kts
09-Mar-15 14:09 36.079792 -115.135296 356 2193ft 0kts
09-Mar-15 14:10 36.079792 -115.135296 356 2193ft 0kts
09-Mar-15 14:11 36.079792 -115.135296 356 2193ft 0kts
09-Mar-15 14:12 36.079792 -115.135296 356 2192ft 0kts
09-Mar-15 14:13 36.079792 -115.135296 356 2192ft 0kts
09-Mar-15 14:14 36.079792 -115.135296 356 2192ft 0kts
09-Mar-15 14:15 36.079792 -115.135296 356 2192ft 0kts
09-Mar-15 14:16 36.079792 -115.135296 356 2192ft 0kts
09-Mar-15 14:17 36.079792 -115.135296 356 2192ft 0kts
09-Mar-15 14:18 36.079792 -115.135296 356 2192ft 0kts
09-Mar-15 14:19 36.079792 -115.135296 356 2192ft 0kts
09-Mar-15 14:20 36.079792 -115.135296 356 2192ft 0kts
09-Mar-15 14:21 36.079792 -115.135296 356 2192ft 0kts
09-Mar-15 14:22 36.079792 -115.135296 356 2192ft 0kts
09-Mar-15 14:23 36.079792 -115.135296 356 2192ft 0kts
09-Mar-15 14:25 36.079792 -115.135296 356 2192ft 0kts
09-Mar-15 14:26 36.079792 -115.135296 356 2192ft 0kts
09-Mar-15 14:27 36.079678 -115.135288 356 2192ft 2kts
09-Mar-15 14:28 36.079023 -115.134855 290 2192ft 2kts
09-Mar-15 14:29 36.078980 -115.134532 267 2192ft 0kts
09-Mar-15 14:30 36.078980 -115.134532 267 2192ft 0kts
09-Mar-15 14:31 36.078980 -115.134532 267 2192ft 0kts
09-Mar-15 14:32 36.078980 -115.134532 267 2192ft 0kts
09-Mar-15 14:33 36.078279 -115.136071 265 2192ft 10kts
09-Mar-15 14:34 36.078260 -115.136459 266 2192ft 2kts
09-Mar-15 14:35 36.077885 -115.137829 183 2192ft 6kts
09-Mar-15 14:36 36.077516 -115.139962 270 2192ft 9kts
09-Mar-15 14:37 36.077508 -115.143647 270 2192ft 12kts
09-Mar-15 14:38 36.077660 -115.146643 274 2192ft 8kts
09-Mar-15 14:39 36.077858 -115.150709 273 2192ft 14kts
09-Mar-15 14:40 36.077947 -115.156384 269 2192ft 18kts
09-Mar-15 14:41 36.077939 -115.162277 268 2192ft 14kts
09-Mar-15 14:42 36.077959 -115.163909 272 2192ft 1kts
09-Mar-15 14:43 36.078064 -115.165110 324 2192ft 3kts
09-Mar-15 14:44 36.093817 -115.156356 31 2199ft 174kts
09-Mar-15 14:45 36.139344 -115.164113 299 4224ft 227kts
09-Mar-15 14:46 36.123154 -115.250148 245 5937ft 288kts
09-Mar-15 14:47 36.063516 -115.311202 202 8982ft 302kts
09-Mar-15 14:48 35.984665 -115.348301 203 10832ft 306kts
09-Mar-15 14:49 35.899743 -115.374829 178 13093ft 333kts
09-Mar-15 14:50 35.800408 -115.342443 161 14119ft 409kts
09-Mar-15 14:51 35.687411 -115.317892 194 17220ft 418kts
09-Mar-15 14:52 35.593653 -115.406858 229 19462ft 438kts
09-Mar-15 14:53 35.509998 -115.519955 229 21803ft 453kts
09-Mar-15 14:54 35.426588 -115.631711 230 24855ft 441kts
09-Mar-15 14:55 35.343790 -115.742344 229 26963ft 443kts
09-Mar-15 14:56 35.258197 -115.855697 231 27919ft 467kts
09-Mar-15 14:57 35.166846 -115.977209 232 28296ft 501kts
09-Mar-15 14:58 35.071795 -116.102539 232 29453ft 515kts
09-Mar-15 14:59 34.972662 -116.232558 232 30595ft 526kts
09-Mar-15 15:00 34.872106 -116.364373 232 31774ft 532kts
09-Mar-15 15:00 34.787057 -116.474613 231 32053ft 532kts
09-Mar-15 15:01 34.682538 -116.603292 230 32057ft 534kts
09-Mar-15 15:02 34.578219 -116.730970 231 32059ft 532kts
09-Mar-15 15:03 34.474254 -116.858325 231 32043ft 522kts
09-Mar-15 15:04 34.371956 -116.983377 232 32028ft 521kts
09-Mar-15 15:05 34.269418 -117.107472 232 32007ft 518kts
09-Mar-15 15:06 34.168301 -117.229513 232 31983ft 517kts
09-Mar-15 15:07 34.066474 -117.352222 232 31985ft 515kts
09-Mar-15 15:08 33.965487 -117.473537 232 31987ft 511kts
09-Mar-15 15:09 33.918696 -117.618699 278 32003ft 454kts
09-Mar-15 15:10 33.922473 -117.770095 279 32007ft 452kts
09-Mar-15 15:11 33.925081 -117.921534 278 32004ft 449kts
09-Mar-15 15:12 33.927874 -118.070623 279 32007ft 447kts
09-Mar-15 15:13 33.930050 -118.219950 278 32008ft 443kts
09-Mar-15 15:14 33.932210 -118.368576 278 32006ft 442kts
09-Mar-15 15:15 33.924929 -118.518189 272 32006ft 451kts
09-Mar-15 15:16 33.910907 -118.668258 271 32012ft 445kts
09-Mar-15 15:17 33.896697 -118.817229 271 32016ft 449kts
09-Mar-15 15:18 33.883052 -118.964961 271 32020ft 443kts
09-Mar-15 15:19 33.868776 -119.113010 271 32017ft 440kts
09-Mar-15 15:20 33.854340 -119.259733 272 32014ft 439kts
09-Mar-15 15:21 33.840204 -119.405646 271 32011ft 438kts
09-Mar-15 15:22 33.825392 -119.551341 271 32017ft 438kts
09-Mar-15 15:23 33.810652 -119.697634 271 32013ft 438kts
09-Mar-15 15:24 33.795889 -119.842908 271 32011ft 437kts
09-Mar-15 15:26 33.780557 -119.988553 271 32005ft 436kts
09-Mar-15 15:27 33.765579 -120.132763 271 32009ft 433kts
09-Mar-15 15:28 33.750398 -120.276943 270 32008ft 434kts
09-Mar-15 15:29 33.734752 -120.421263 271 32013ft 437kts
09-Mar-15 15:30 33.719393 -120.565929 271 32014ft 436kts
09-Mar-15 15:31 33.703333 -120.710437 271 32011ft 436kts
09-Mar-15 15:32 33.687341 -120.854419 271 32008ft 435kts
09-Mar-15 15:33 33.671362 -120.999433 271 32007ft 434kts
09-Mar-15 15:34 33.654882 -121.143185 271 32008ft 434kts
09-Mar-15 15:35 33.638594 -121.287731 271 32015ft 431kts
09-Mar-15 15:36 33.622204 -121.430411 270 32014ft 433kts
09-Mar-15 15:37 33.605100 -121.574167 270 32015ft 435kts
09-Mar-15 15:38 33.588355 -121.717701 270 32020ft 435kts
09-Mar-15 15:39 33.571139 -121.861537 270 32019ft 435kts
09-Mar-15 15:40 33.553842 -122.004771 270 32017ft 435kts
09-Mar-15 15:41 33.536765 -122.147893 270 32021ft 434kts
09-Mar-15 15:42 33.518933 -122.292011 270 32017ft 434kts
09-Mar-15 15:43 33.501207 -122.435155 270 32018ft 434kts
09-Mar-15 15:44 33.482077 -122.577934 266 32019ft 439kts
09-Mar-15 15:45 33.454817 -122.719786 265 32017ft 440kts
09-Mar-15 15:46 33.425277 -122.862062 265 32019ft 440kts
09-Mar-15 15:47 33.395551 -123.004341 265 32019ft 440kts
09-Mar-15 15:48 33.365976 -123.147035 265 32019ft 440kts
09-Mar-15 15:49 33.335627 -123.289951 264 32018ft 441kts
09-Mar-15 15:50 33.305675 -123.432250 265 32018ft 442kts
09-Mar-15 15:51 33.275545 -123.573549 263 32017ft 439kts
09-Mar-15 15:52 33.244674 -123.716256 264 32016ft 440kts
09-Mar-15 15:53 33.214527 -123.857224 262 32016ft 440kts
09-Mar-15 15:54 33.183505 -123.999741 264 32019ft 440kts
09-Mar-15 15:55 33.152594 -124.141063 262 32017ft 440kts
09-Mar-15 15:56 33.121976 -124.281928 261 32017ft 439kts
09-Mar-15 15:57 33.090697 -124.423215 262 32018ft 439kts
09-Mar-15 15:58 33.059384 -124.564535 261 32016ft 440kts
09-Mar-15 15:59 33.027507 -124.705630 261 32019ft 439kts
09-Mar-15 16:00 32.995685 -124.845714 261 32015ft 440kts
09-Mar-15 16:01 32.963829 -124.987287 261 32012ft 440kts
09-Mar-15 16:02 32.931776 -125.127829 260 32012ft 440kts
09-Mar-15 16:02 32.904579 -125.245630 260 32012ft 440kts
09-Mar-15 16:03 32.872597 -125.386030 260 32008ft 440kts
09-Mar-15 16:04 32.839792 -125.526901 260 32006ft 441kts
09-Mar-15 16:05 32.806804 -125.667459 260 32007ft 441kts
09-Mar-15 16:06 32.774361 -125.807744 260 32005ft 440kts
09-Mar-15 16:07 32.741071 -125.948246 260 32005ft 441kts
09-Mar-15 16:08 32.707897 -126.088482 260 32006ft 440kts
09-Mar-15 16:09 32.674713 -126.228707 260 32006ft 440kts
09-Mar-15 16:10 32.640920 -126.369172 259 32006ft 441kts
09-Mar-15 16:11 32.607460 -126.508905 260 32005ft 441kts
09-Mar-15 16:12 32.573612 -126.648585 259 32006ft 440kts
09-Mar-15 16:13 32.539350 -126.788574 259 32004ft 440kts
09-Mar-15 16:14 32.505462 -126.928537 259 32005ft 440kts
09-Mar-15 16:15 32.471293 -127.067972 259 32006ft 440kts
09-Mar-15 16:16 32.436621 -127.207630 259 32005ft 441kts
09-Mar-15 16:17 32.402197 -127.347758 259 32008ft 441kts
09-Mar-15 16:18 32.367408 -127.486423 259 32008ft 442kts
09-Mar-15 16:19 32.332219 -127.626734 259 32016ft 441kts
09-Mar-15 16:20 32.297381 -127.765565 259 32014ft 441kts
09-Mar-15 16:21 32.261672 -127.905348 258 32013ft 442kts
09-Mar-15 16:22 32.226482 -128.044510 258 32017ft 442kts
09-Mar-15 16:23 32.190538 -128.184563 258 32018ft 442kts
09-Mar-15 16:24 32.154557 -128.323521 258 32019ft 443kts
09-Mar-15 16:25 32.118858 -128.462719 258 32020ft 443kts
09-Mar-15 16:27 32.082695 -128.600986 258 32018ft 443kts
09-Mar-15 16:28 32.046237 -128.740422 258 32019ft 442kts
09-Mar-15 16:29 32.010039 -128.879020 258 32018ft 442kts
09-Mar-15 16:30 31.973156 -129.018043 258 32018ft 444kts
09-Mar-15 16:31 31.936515 -129.156975 258 32018ft 443kts
09-Mar-15 16:32 31.899622 -129.295330 258 32018ft 443kts
09-Mar-15 16:33 31.862086 -129.434546 258 32020ft 443kts
09-Mar-15 16:34 31.825229 -129.572692 258 32017ft 443kts
09-Mar-15 16:35 31.787808 -129.710635 258 32019ft 442kts
09-Mar-15 16:36 31.749857 -129.849492 258 32017ft 443kts
09-Mar-15 16:37 31.712638 -129.986899 257 32018ft 443kts
09-Mar-15 16:38 31.674538 -130.125213 258 32020ft 444kts
09-Mar-15 16:39 31.636603 -130.263576 258 32019ft 443kts
09-Mar-15 16:40 31.598339 -130.401793 258 32022ft 445kts
09-Mar-15 16:41 31.559772 -130.539590 257 32018ft 443kts
09-Mar-15 16:42 31.521069 -130.678704 259 32028ft 448kts
09-Mar-15 16:43 31.482266 -130.817268 259 32025ft 449kts
09-Mar-15 16:44 31.443070 -130.955937 259 32023ft 445kts
09-Mar-15 16:45 31.403851 -131.095344 259 32026ft 450kts
09-Mar-15 16:46 31.364339 -131.233743 259 32026ft 448kts
09-Mar-15 16:47 31.324729 -131.372894 259 32024ft 449kts
09-Mar-15 16:48 31.284736 -131.511862 258 32026ft 449kts
09-Mar-15 16:49 31.244565 -131.650208 258 32030ft 450kts
09-Mar-15 16:50 31.204640 -131.789110 258 32029ft 450kts
09-Mar-15 16:51 31.164265 -131.927355 258 32028ft 451kts
09-Mar-15 16:52 31.123786 -132.065882 258 32028ft 450kts
09-Mar-15 16:53 31.083013 -132.204611 258 32026ft 450kts
09-Mar-15 16:54 31.041936 -132.342790 258 32028ft 450kts
09-Mar-15 16:55 31.000798 -132.480630 258 32032ft 449kts
09-Mar-15 16:56 30.960028 -132.618452 258 32028ft 449kts
09-Mar-15 16:57 30.918502 -132.756581 258 32028ft 448kts
09-Mar-15 16:58 30.876849 -132.894382 258 32025ft 449kts
09-Mar-15 16:59 30.835830 -133.031381 258 32026ft 450kts
09-Mar-15 17:00 30.793685 -133.169419 258 32030ft 450kts
09-Mar-15 17:01 30.751796 -133.307128 258 32029ft 450kts
09-Mar-15 17:02 30.709895 -133.444165 258 32030ft 451kts
09-Mar-15 17:03 30.667222 -133.581805 258 32028ft 450kts
09-Mar-15 17:04 30.625285 -133.718770 258 32028ft 451kts
09-Mar-15 17:04 30.589843 -133.833120 257 32022ft 451kts
09-Mar-15 17:05 30.546818 -133.970329 257 32027ft 450kts
09-Mar-15 17:06 30.504553 -134.107056 258 32027ft 451kts
09-Mar-15 17:07 30.461375 -134.244577 257 32026ft 451kts
09-Mar-15 17:08 30.418509 -134.381004 258 32027ft 450kts
09-Mar-15 17:09 30.375399 -134.517872 257 32029ft 450kts
09-Mar-15 17:10 30.331806 -134.653932 257 32028ft 451kts
09-Mar-15 17:11 30.288527 -134.790206 257 32029ft 451kts
09-Mar-15 17:12 30.244651 -134.926975 257 32023ft 451kts
09-Mar-15 17:13 30.200699 -135.063056 257 32027ft 452kts
09-Mar-15 17:14 30.156931 -135.199260 256 32029ft 452kts
09-Mar-15 17:15 30.112545 -135.335702 257 32026ft 452kts
09-Mar-15 17:16 30.068155 -135.471949 257 32025ft 453kts
09-Mar-15 17:17 30.023985 -135.607335 256 32024ft 451kts
09-Mar-15 17:18 29.978910 -135.743996 256 32025ft 452kts
09-Mar-15 17:19 29.934237 -135.880424 256 32023ft 451kts
09-Mar-15 17:20 29.889009 -136.016640 256 32027ft 456kts
09-Mar-15 17:21 29.843934 -136.151870 256 32020ft 454kts
09-Mar-15 17:22 29.798410 -136.289020 256 32026ft 455kts
09-Mar-15 17:23 29.752935 -136.424394 256 32027ft 455kts
09-Mar-15 17:24 29.706994 -136.561287 256 32026ft 455kts
09-Mar-15 17:25 29.661306 -136.696516 256 32026ft 454kts
09-Mar-15 17:26 29.614948 -136.832516 255 32028ft 456kts
09-Mar-15 17:28 29.568824 -136.968856 256 32027ft 456kts
09-Mar-15 17:29 29.522322 -137.104764 256 32026ft 456kts
09-Mar-15 17:30 29.475949 -137.240200 256 32027ft 455kts
09-Mar-15 17:31 29.429844 -137.375004 255 32037ft 460kts
09-Mar-15 17:32 29.382387 -137.511917 255 32032ft 457kts
09-Mar-15 17:33 29.335333 -137.647943 256 32032ft 459kts
09-Mar-15 17:34 29.287907 -137.784004 255 32040ft 456kts
09-Mar-15 17:35 29.239809 -137.920702 255 32023ft 469kts
09-Mar-15 17:36 29.192127 -138.057653 255 32025ft 463kts
09-Mar-15 17:37 29.143437 -138.195334 255 32025ft 461kts
09-Mar-15 17:38 29.095078 -138.332054 255 32024ft 467kts
09-Mar-15 17:39 29.046438 -138.469121 255 32023ft 466kts
09-Mar-15 17:40 28.997465 -138.606216 255 32024ft 466kts
09-Mar-15 17:41 28.948561 -138.743767 255 32020ft 466kts
09-Mar-15 17:42 28.899272 -138.880548 254 32021ft 467kts
09-Mar-15 17:43 28.849910 -139.017585 255 32024ft 466kts
09-Mar-15 17:44 28.800490 -139.154717 255 32022ft 466kts
09-Mar-15 17:45 28.750824 -139.291211 254 32019ft 467kts
09-Mar-15 17:46 28.700919 -139.428582 254 32023ft 466kts
09-Mar-15 17:47 28.650830 -139.564296 254 32025ft 467kts
09-Mar-15 17:48 28.600508 -139.700541 254 32020ft 466kts
09-Mar-15 17:49 28.550059 -139.837161 255 32023ft 466kts
09-Mar-15 17:50 28.499708 -139.973023 254 32022ft 467kts
09-Mar-15 17:51 28.448978 -140.109008 254 32024ft 467kts
09-Mar-15 17:52 28.398185 -140.245767 254 32022ft 467kts
09-Mar-15 17:53 28.347553 -140.380658 254 32024ft 466kts
09-Mar-15 17:54 28.296286 -140.516621 254 32022ft 466kts
09-Mar-15 17:55 28.245319 -140.651948 254 32022ft 465kts
09-Mar-15 17:56 28.193703 -140.787400 254 32018ft 464kts
09-Mar-15 17:57 28.142562 -140.922640 254 32020ft 468kts
09-Mar-15 17:58 28.091299 -141.056099 256 32015ft 453kts
09-Mar-15 17:59 28.040504 -141.188392 256 32015ft 457kts
09-Mar-15 18:00 27.990145 -141.320177 256 32013ft 457kts
09-Mar-15 18:01 27.938847 -141.452666 256 32015ft 456kts
09-Mar-15 18:02 27.887751 -141.585200 256 32014ft 456kts
09-Mar-15 18:02 27.845385 -141.694256 256 32015ft 458kts
09-Mar-15 18:03 27.793824 -141.826038 256 32014ft 457kts
09-Mar-15 18:05 27.733990 -141.979692 256 32013ft 457kts
09-Mar-15 18:05 27.690839 -142.089386 255 32014ft 457kts
09-Mar-15 18:06 27.639027 -142.220491 256 32012ft 457kts
09-Mar-15 18:07 27.588912 -142.348281 253 32005ft 425kts
09-Mar-15 18:08 27.538770 -142.474019 255 32017ft 456kts
09-Mar-15 18:09 27.486425 -142.608531 244 32124ft 486kts
09-Mar-15 18:10 27.429983 -142.748780 245 32126ft 489kts
09-Mar-15 18:11 27.373751 -142.888657 245 32126ft 489kts
09-Mar-15 18:12 27.318093 -143.027915 245 32127ft 489kts
09-Mar-15 18:13 27.261626 -143.167588 245 32126ft 489kts
09-Mar-15 18:14 27.205419 -143.306890 245 32126ft 489kts
09-Mar-15 18:15 27.148630 -143.446721 244 32127ft 489kts
09-Mar-15 18:16 27.091834 -143.585836 244 32125ft 489kts
09-Mar-15 18:17 27.035409 -143.724624 244 32125ft 489kts
09-Mar-15 18:18 26.978284 -143.863502 244 32127ft 489kts
09-Mar-15 18:19 26.921572 -144.001785 244 32125ft 489kts
09-Mar-15 18:20 26.864500 -144.139834 244 32126ft 489kts
09-Mar-15 18:21 26.806940 -144.278467 244 32127ft 489kts
09-Mar-15 18:22 26.749650 -144.416836 244 32125ft 489kts
09-Mar-15 18:23 26.691913 -144.554985 244 32127ft 489kts
09-Mar-15 18:24 26.634651 -144.692425 244 32126ft 489kts
09-Mar-15 18:25 26.576568 -144.830537 244 32125ft 489kts
09-Mar-15 18:26 26.518445 -144.968520 244 32127ft 489kts
09-Mar-15 18:28 26.460610 -145.106113 243 32125ft 489kts
09-Mar-15 18:29 26.402380 -145.243162 243 32127ft 489kts
09-Mar-15 18:30 26.344334 -145.380167 243 32126ft 489kts
09-Mar-15 18:31 26.285572 -145.517664 243 32125ft 489kts
09-Mar-15 18:32 26.227302 -145.654096 243 32127ft 489kts
09-Mar-15 18:33 26.168321 -145.791491 243 32125ft 489kts
09-Mar-15 18:34 26.109542 -145.927746 243 32126ft 489kts
09-Mar-15 18:35 26.050535 -146.064374 243 32126ft 489kts
09-Mar-15 18:36 25.991781 -146.200400 243 32124ft 489kts
09-Mar-15 18:37 25.932375 -146.336752 243 32126ft 489kts
09-Mar-15 18:38 25.873019 -146.472518 243 32124ft 489kts
09-Mar-15 18:39 25.813848 -146.608659 243 32126ft 488kts
09-Mar-15 18:40 25.753994 -146.744952 243 32125ft 489kts
09-Mar-15 18:41 25.694643 -146.879958 243 32125ft 488kts
09-Mar-15 18:42 25.634807 -147.015825 243 32126ft 488kts
09-Mar-15 18:43 25.574548 -147.151591 243 32124ft 488kts
09-Mar-15 18:44 25.514882 -147.286603 243 32126ft 488kts
09-Mar-15 18:45 25.454681 -147.422028 243 32125ft 488kts
09-Mar-15 18:46 25.394729 -147.556707 243 32126ft 488kts
09-Mar-15 18:47 25.334161 -147.692068 242 32125ft 488kts
09-Mar-15 18:48 25.273587 -147.826485 242 32126ft 488kts
09-Mar-15 18:49 25.213158 -147.961185 242 32125ft 488kts
09-Mar-15 18:50 25.152193 -148.095739 242 32125ft 488kts
09-Mar-15 18:51 25.091553 -148.229802 242 32126ft 488kts
09-Mar-15 18:52 25.030450 -148.364136 242 32123ft 488kts
09-Mar-15 18:53 24.969177 -148.498103 242 32126ft 488kts
09-Mar-15 18:54 24.908139 -148.632345 242 32124ft 488kts
09-Mar-15 18:55 24.846899 -148.765518 242 32123ft 488kts
09-Mar-15 18:56 24.785510 -148.899344 242 32126ft 488kts
09-Mar-15 18:57 24.723978 -149.032559 242 32124ft 488kts
09-Mar-15 18:58 24.662247 -149.165693 242 32124ft 488kts
09-Mar-15 18:59 24.600608 -149.298982 242 32126ft 488kts
09-Mar-15 19:00 24.538661 -149.431733 242 32124ft 488kts
09-Mar-15 19:01 24.476776 -149.565215 242 32123ft 488kts
09-Mar-15 19:02 24.414729 -149.697815 242 32125ft 488kts
09-Mar-15 19:02 24.362876 -149.808025 242 32125ft 488kts
09-Mar-15 19:04 24.290335 -149.962652 242 32119ft 488kts
09-Mar-15 19:05 24.228019 -150.094314 242 32076ft 485kts
09-Mar-15 19:05 24.176078 -150.204497 242 32072ft 484kts
09-Mar-15 19:06 24.113819 -150.335571 242 32071ft 484kts
09-Mar-15 19:07 24.051784 -150.465705 242 32070ft 484kts
09-Mar-15 19:08 23.989639 -150.596570 242 32070ft 484kts
09-Mar-15 19:09 23.926739 -150.727754 242 32070ft 484kts
09-Mar-15 19:10 23.864698 -150.857476 242 32070ft 484kts
09-Mar-15 19:11 23.801846 -150.987973 241 32070ft 484kts
09-Mar-15 19:12 23.739263 -151.117595 242 32070ft 484kts
09-Mar-15 19:13 23.676061 -151.248606 241 32070ft 484kts
09-Mar-15 19:14 23.613003 -151.378354 241 32070ft 484kts
09-Mar-15 19:15 23.549985 -151.508377 241 32070ft 484kts
09-Mar-15 19:16 23.487077 -151.637573 241 32070ft 484kts
09-Mar-15 19:17 23.423537 -151.767795 241 32070ft 484kts
09-Mar-15 19:18 23.360292 -151.897038 241 32070ft 484kts
09-Mar-15 19:19 23.296619 -152.026382 241 32070ft 484kts
09-Mar-15 19:20 23.233200 -152.155485 241 32070ft 484kts
09-Mar-15 19:21 23.169147 -152.285057 241 32070ft 484kts
09-Mar-15 19:22 23.105266 -152.414012 241 32070ft 483kts
09-Mar-15 19:23 23.041587 -152.542619 241 32070ft 484kts
09-Mar-15 19:24 22.977233 -152.671312 241 32070ft 483kts
09-Mar-15 19:25 22.913005 -152.798821 241 32070ft 484kts
09-Mar-15 19:27 22.848298 -152.927198 241 32070ft 483kts
09-Mar-15 19:28 22.783829 -153.055080 241 32070ft 483kts
09-Mar-15 19:29 22.718634 -153.183601 241 32070ft 483kts
09-Mar-15 19:30 22.653926 -153.311459 241 32063ft 486kts
09-Mar-15 19:31 22.588681 -153.439511 241 32065ft 493kts
09-Mar-15 19:32 22.522297 -153.569937 241 32061ft 482kts
09-Mar-15 19:33 22.458312 -153.694924 242 31983ft 445kts
09-Mar-15 19:34 22.400923 -153.807681 238 32002ft 438kts
09-Mar-15 19:35 22.366488 -153.932402 265 32000ft 427kts
09-Mar-15 19:36 22.367346 -154.064367 267 32012ft 455kts
09-Mar-15 19:37 22.369739 -154.198158 270 32004ft 437kts
09-Mar-15 19:38 22.372717 -154.333875 267 32011ft 455kts
09-Mar-15 19:39 22.375084 -154.465761 268 31993ft 441kts
09-Mar-15 19:40 22.377254 -154.602206 269 32006ft 441kts
09-Mar-15 19:41 22.380223 -154.734353 267 32005ft 450kts
09-Mar-15 19:42 22.381885 -154.869967 270 32005ft 435kts
09-Mar-15 19:43 22.384258 -155.003604 267 32012ft 457kts
09-Mar-15 19:44 22.386078 -155.136730 270 32004ft 438kts
09-Mar-15 19:45 22.387904 -155.270632 267 32003ft 441kts
09-Mar-15 19:46 22.389747 -155.402422 269 31997ft 439kts
09-Mar-15 19:47 22.391286 -155.533709 269 31994ft 437kts
09-Mar-15 19:48 22.392765 -155.665129 268 31999ft 431kts
09-Mar-15 19:49 22.394320 -155.796071 269 31994ft 439kts
09-Mar-15 19:50 22.395553 -155.926728 268 32000ft 428kts
09-Mar-15 19:51 22.396691 -156.057374 268 31996ft 434kts
09-Mar-15 19:52 22.397792 -156.184762 268 31999ft 419kts
09-Mar-15 19:53 22.355823 -156.297685 231 32007ft 426kts
09-Mar-15 19:54 22.280299 -156.396044 233 32009ft 425kts
09-Mar-15 19:55 22.204600 -156.494365 233 32011ft 424kts
09-Mar-15 19:56 22.128808 -156.592690 233 32010ft 423kts
09-Mar-15 19:57 22.053891 -156.689958 233 32010ft 423kts
09-Mar-15 19:58 21.978273 -156.787718 233 32010ft 423kts
09-Mar-15 19:59 21.902794 -156.885165 233 32010ft 421kts
09-Mar-15 19:59 21.840727 -156.965317 233 32010ft 419kts
09-Mar-15 20:00 21.765513 -157.062411 233 32012ft 417kts
09-Mar-15 20:02 21.678815 -157.174067 233 32012ft 415kts
09-Mar-15 20:02 21.617626 -157.253069 233 30211ft 411kts
09-Mar-15 20:03 21.541421 -157.345174 233 27446ft 391kts
09-Mar-15 20:04 21.477398 -157.419101 233 26883ft 287kts
09-Mar-15 20:05 21.427790 -157.471920 233 25286ft 233kts
09-Mar-15 20:06 21.379192 -157.520255 233 21769ft 263kts
09-Mar-15 20:07 21.327727 -157.571481 233 19302ft 246kts
09-Mar-15 20:08 21.278729 -157.623673 228 16241ft 267kts
09-Mar-15 20:09 21.255922 -157.688019 268 14281ft 226kts
09-Mar-15 20:10 21.249767 -157.754585 268 12040ft 222kts
09-Mar-15 20:11 21.244361 -157.813992 268 11233ft 179kts
09-Mar-15 20:12 21.230640 -157.881430 256 8536ft 244kts
09-Mar-15 20:13 21.211886 -157.949493 257 6779ft 235kts
09-Mar-15 20:14 21.201089 -158.014067 270 5652ft 208kts
09-Mar-15 20:15 21.230871 -158.059807 341 3993ft 192kts
09-Mar-15 20:16 21.276310 -158.052338 35 3356ft 162kts
09-Mar-15 20:17 21.298396 -158.003340 68 2668ft 214kts
09-Mar-15 20:18 21.306401 -157.945486 86 100ft 166kts
09-Mar-15 20:19 21.306705 -157.916290 86 25ft 26kts
09-Mar-15 20:20 21.306712 -157.915962 90 25ft 0kts
09-Mar-15 20:21 21.306712 -157.915962 90 25ft 0kts
09-Mar-15 20:22 21.306712 -157.915961 90 25ft 0kts
09-Mar-15 20:23 21.306712 -157.915961 90 25ft 0kts
09-Mar-15 20:24 21.306712 -157.915960 90 25ft 0kts
09-Mar-15 20:25 21.306712 -157.915960 90 25ft 0kts
09-Mar-15 20:27 21.306712 -157.915960 90 25ft 0kts
09-Mar-15 20:28 21.306712 -157.915959 90 25ft 0kts
09-Mar-15 20:29 21.306712 -157.915959 90 25ft 0kts
09-Mar-15 20:30 21.306712 -157.915958 90 25ft 0kts
09-Mar-15 20:31 21.306712 -157.915958 90 25ft 0kts
09-Mar-15 20:32 21.306712 -157.915958 90 25ft 0kts
09-Mar-15 20:33 21.306712 -157.915957 90 25ft 0kts
09-Mar-15 20:34 21.306712 -157.915957 90 25ft 0kts

Navigation Log

Ident Type
Flight plan parsing failed, navigation log unavailable